Time;durP1;ratioP1;P1;durP2;ratioP2;P2;SDS_P1;SDS_P2;PMS_P1;PMS_P2;Temp;Humidity;BMP_temperature;BMP_pressure;BME280_temperature;BME280_humidity;BME280_pressure;Samples;Min_cycle;Max_cycle;Signal;HPM_P1;HPM_P2
2022/09/17 00:02:21;;;;;;;3.20;0.70;;;11.00;99.90;;;;;;5031552;28;20260;-75
2022/09/17 00:04:48;;;;;;;0.70;0.50;;;11.00;99.90;;;;;;5032295;28;20965;-75
2022/09/17 00:07:14;;;;;;;1.03;0.80;;;11.00;99.90;;;;;;5032266;28;20441;-75
2022/09/17 00:09:40;;;;;;;1.40;0.60;;;11.00;99.90;;;;;;5030487;28;20861;-75
2022/09/17 00:12:06;;;;;;;0.80;0.60;;;10.90;99.90;;;;;;5031414;28;20445;-75
2022/09/17 00:14:31;;;;;;;1.57;0.67;;;11.00;99.90;;;;;;5030577;28;20728;-76
2022/09/17 00:16:57;;;;;;;6.63;0.80;;;11.10;99.90;;;;;;5032506;28;20192;-75
2022/09/17 00:19:24;;;;;;;0.90;0.70;;;10.90;99.90;;;;;;5039414;28;20185;-75
2022/09/17 00:21:50;;;;;;;1.20;0.77;;;11.00;99.90;;;;;;5031244;28;20322;-75
2022/09/17 00:24:16;;;;;;;1.07;0.70;;;10.90;99.90;;;;;;5030591;28;20435;-75
2022/09/17 00:26:42;;;;;;;2.33;0.70;;;10.80;99.90;;;;;;5030366;28;20429;-75
2022/09/17 00:29:09;;;;;;;1.90;0.60;;;10.70;99.90;;;;;;5030242;28;20471;-75
2022/09/17 00:31:35;;;;;;;3.03;0.77;;;10.80;99.90;;;;;;5031508;28;20809;-75
2022/09/17 00:34:03;;;;;;;1.07;0.70;;;10.70;99.90;;;;;;5031738;28;20503;-75
2022/09/17 00:36:29;;;;;;;1.53;0.80;;;10.70;99.90;;;;;;5030207;28;20863;-75
2022/09/17 00:38:57;;;;;;;2.17;0.80;;;10.70;99.90;;;;;;5029982;28;20429;-75
2022/09/17 00:41:24;;;;;;;2.40;0.90;;;10.80;99.90;;;;;;5031392;28;20800;-75
2022/09/17 00:43:53;;;;;;;1.20;0.67;;;10.80;99.90;;;;;;5031401;28;20485;-75
2022/09/17 00:46:39;;;;;;;1.00;0.60;;;10.80;99.90;;;;;;5031203;28;20968;-75
2022/09/17 00:49:21;;;;;;;2.50;1.07;;;10.80;99.90;;;;;;5030929;28;20468;-75
2022/09/17 00:52:23;;;;;;;2.60;0.97;;;10.70;99.90;;;;;;5030471;28;20411;-75
2022/09/17 00:55:13;;;;;;;1.27;0.80;;;10.70;99.90;;;;;;5007207;28;20947;-75
2022/09/17 00:57:40;;;;;;;5.80;0.90;;;10.70;99.90;;;;;;5028538;28;20434;-75
2022/09/17 01:00:07;;;;;;;1.37;0.63;;;10.60;99.90;;;;;;5030492;28;20435;-75
2022/09/17 01:02:33;;;;;;;2.10;0.90;;;10.60;99.90;;;;;;5030398;28;20990;-75
2022/09/17 01:04:59;;;;;;;2.80;0.80;;;10.60;99.90;;;;;;5030510;28;20506;-75
2022/09/17 01:07:51;;;;;;;1.10;0.70;;;10.60;99.90;;;;;;5030322;28;20505;-75
2022/09/17 01:10:32;;;;;;;2.70;0.63;;;10.50;99.90;;;;;;5030430;28;20286;-75
2022/09/17 01:13:24;;;;;;;4.93;0.80;;;10.60;99.90;;;;;;5028631;28;20963;-75
2022/09/17 01:16:29;;;;;;;1.20;0.83;;;10.50;99.90;;;;;;5030352;28;20419;-75
2022/09/17 01:19:13;;;;;;;1.67;0.83;;;10.60;99.90;;;;;;5018408;28;20430;-75
2022/09/17 01:21:53;;;;;;;2.97;0.80;;;10.50;99.90;;;;;;5030313;28;20895;-75
2022/09/17 01:24:34;;;;;;;2.70;0.90;;;10.60;99.90;;;;;;5030283;28;20414;-75
2022/09/17 01:27:29;;;;;;;3.00;0.90;;;10.60;99.90;;;;;;5030650;28;20419;-75
2022/09/17 01:30:13;;;;;;;1.97;0.60;;;10.60;99.90;;;;;;5030470;28;20491;-75
2022/09/17 01:32:58;;;;;;;1.80;0.80;;;10.60;99.90;;;;;;5030368;28;21003;-75
2022/09/17 01:35:42;;;;;;;4.87;1.57;;;10.70;99.90;;;;;;5030755;28;20413;-75
2022/09/17 01:38:07;;;;;;;5.43;0.77;;;10.60;99.90;;;;;;5030553;28;20425;-75
2022/09/17 01:40:49;;;;;;;1.67;1.00;;;10.60;99.90;;;;;;5030420;28;20428;-75
2022/09/17 01:43:28;;;;;;;2.50;0.90;;;10.50;99.90;;;;;;5030299;28;20203;-75
2022/09/17 01:46:14;;;;;;;3.37;1.03;;;10.60;99.90;;;;;;5030333;28;20498;-75
2022/09/17 01:48:44;;;;;;;3.67;1.07;;;10.50;99.90;;;;;;5030032;28;20407;-75
2022/09/17 01:51:17;;;;;;;2.20;1.27;;;10.60;99.90;;;;;;5029777;28;20546;-75
2022/09/17 01:53:59;;;;;;;3.53;1.73;;;10.60;99.90;;;;;;5028162;28;20534;-75
2022/09/17 01:56:57;;;;;;;4.67;0.90;;;10.60;99.90;;;;;;5029814;28;20418;-76
2022/09/17 01:59:49;;;;;;;1.23;0.80;;;10.50;99.90;;;;;;5029455;28;20418;-75
2022/09/17 02:02:37;;;;;;;2.47;1.17;;;10.50;99.90;;;;;;5029324;28;21256;-76
2022/09/17 02:05:16;;;;;;;1.00;0.90;;;10.50;99.90;;;;;;5028361;28;20798;-75
2022/09/17 02:07:46;;;;;;;1.57;1.10;;;10.40;99.90;;;;;;5029420;28;20476;-75
2022/09/17 02:10:16;;;;;;;5.20;1.10;;;10.40;99.90;;;;;;5029351;28;20471;-75
2022/09/17 02:12:48;;;;;;;3.50;0.93;;;10.60;99.90;;;;;;5029100;28;20473;-75
2022/09/17 02:15:24;;;;;;;4.93;1.20;;;10.40;99.90;;;;;;5029355;28;20414;-76
2022/09/17 02:18:27;;;;;;;1.87;0.97;;;10.40;99.90;;;;;;5029091;28;20497;-76
2022/09/17 02:21:07;;;;;;;2.90;1.00;;;10.40;99.90;;;;;;5027812;28;21267;-76
2022/09/17 02:23:38;;;;;;;1.77;0.93;;;10.30;99.90;;;;;;5029694;28;20918;-75
2022/09/17 02:26:11;;;;;;;2.70;1.40;;;10.30;99.90;;;;;;5030701;28;20459;-75
2022/09/17 02:29:10;;;;;;;1.23;1.07;;;10.30;99.90;;;;;;5029287;28;20432;-75
2022/09/17 02:31:36;;;;;;;3.37;1.20;;;10.30;99.90;;;;;;5016532;28;20468;-75
2022/09/17 02:34:04;;;;;;;1.30;1.17;;;10.30;99.90;;;;;;5027823;28;20419;-75
2022/09/17 02:36:31;;;;;;;2.23;1.10;;;10.10;99.90;;;;;;5029099;28;20177;-75
2022/09/17 02:39:01;;;;;;;4.53;1.50;;;10.30;99.90;;;;;;5028920;28;20417;-75
2022/09/17 02:41:51;;;;;;;1.20;0.80;;;10.40;99.90;;;;;;5028639;28;20432;-75
2022/09/17 02:44:37;;;;;;;2.00;0.97;;;10.40;99.90;;;;;;5028791;28;20446;-75
2022/09/17 02:47:15;;;;;;;1.10;0.80;;;10.40;99.90;;;;;;5027608;28;20450;-75
2022/09/17 02:49:56;;;;;;;3.20;0.97;;;10.40;99.90;;;;;;5027060;28;20469;-76
2022/09/17 02:52:54;;;;;;;1.97;0.83;;;10.50;99.90;;;;;;5027030;28;20964;-75
2022/09/17 02:55:44;;;;;;;1.20;1.10;;;10.50;99.90;;;;;;5028770;28;20408;-75
2022/09/17 02:58:16;;;;;;;4.40;1.23;;;10.40;99.90;;;;;;5028938;28;20484;-75
2022/09/17 03:00:43;;;;;;;2.53;0.97;;;10.40;99.90;;;;;;5032939;28;20469;-75
2022/09/17 03:03:19;;;;;;;2.47;1.20;;;10.40;99.90;;;;;;5033119;28;20822;-75
2022/09/17 03:05:46;;;;;;;1.73;1.20;;;10.30;99.90;;;;;;5033238;28;20481;-75
2022/09/17 03:08:13;;;;;;;3.00;1.57;;;10.30;99.90;;;;;;5033318;28;21289;-75
2022/09/17 03:10:39;;;;;;;3.37;1.27;;;10.30;99.90;;;;;;5033079;28;20894;-75
2022/09/17 03:13:05;;;;;;;3.43;1.33;;;10.30;99.90;;;;;;5031326;28;20498;-75
2022/09/17 03:15:30;;;;;;;4.27;1.10;;;10.40;99.90;;;;;;5031803;28;20423;-75
2022/09/17 03:17:56;;;;;;;3.03;1.20;;;10.40;99.90;;;;;;5033035;28;20199;-75
2022/09/17 03:20:22;;;;;;;4.87;1.10;;;10.40;99.90;;;;;;5033102;28;20270;-75
2022/09/17 03:22:47;;;;;;;3.37;1.60;;;10.50;99.90;;;;;;5031044;28;20267;-75
2022/09/17 03:25:13;;;;;;;5.43;1.23;;;10.40;99.90;;;;;;5032408;28;20426;-75
2022/09/17 03:27:39;;;;;;;3.37;1.50;;;10.40;99.90;;;;;;5032391;28;20176;-75
2022/09/17 03:30:06;;;;;;;2.40;1.27;;;10.40;99.90;;;;;;5032318;28;20258;-75
2022/09/17 03:32:32;;;;;;;4.40;1.10;;;10.30;99.90;;;;;;5032109;28;20706;-75
2022/09/17 03:34:58;;;;;;;4.40;1.03;;;10.30;99.90;;;;;;5032032;28;20439;-75
2022/09/17 03:37:23;;;;;;;2.70;1.20;;;10.30;99.90;;;;;;5032347;28;20472;-75
2022/09/17 03:39:49;;;;;;;4.90;1.20;;;10.30;99.90;;;;;;5032231;28;20225;-75
2022/09/17 03:42:15;;;;;;;4.87;1.73;;;10.40;99.90;;;;;;5031861;28;20297;-75
2022/09/17 03:44:40;;;;;;;12.83;1.73;;;10.20;99.90;;;;;;5031883;28;20199;-75
2022/09/17 03:47:06;;;;;;;6.53;1.60;;;10.20;99.90;;;;;;5031899;28;20188;-75
2022/09/17 03:49:32;;;;;;;1.13;0.83;;;10.10;99.90;;;;;;5030265;28;20895;-75
2022/09/17 03:51:58;;;;;;;4.73;1.40;;;10.10;99.90;;;;;;5031758;28;20433;-75
2022/09/17 03:54:24;;;;;;;3.53;1.30;;;10.00;99.90;;;;;;5030418;28;20264;-75
2022/09/17 03:56:50;;;;;;;2.90;1.73;;;10.00;99.90;;;;;;5031701;28;20429;-75
2022/09/17 03:59:15;;;;;;;1.50;1.40;;;10.00;99.90;;;;;;5013898;28;20433;-75
2022/09/17 04:01:41;;;;;;;3.40;1.50;;;9.90;99.90;;;;;;5030226;28;20214;-75
2022/09/17 04:04:07;;;;;;;4.37;1.63;;;10.00;99.90;;;;;;5030289;28;20316;-75
2022/09/17 04:06:33;;;;;;;2.70;1.40;;;9.90;99.90;;;;;;5031474;28;20524;-75
2022/09/17 04:08:59;;;;;;;1.50;1.20;;;9.90;99.90;;;;;;5031455;28;20643;-75
2022/09/17 04:11:25;;;;;;;2.33;1.57;;;9.90;99.90;;;;;;5031285;28;21140;-75
2022/09/17 04:13:51;;;;;;;6.23;1.50;;;10.00;99.90;;;;;;5031233;28;20476;-75
2022/09/17 04:16:17;;;;;;;5.53;1.10;;;10.00;99.90;;;;;;4997219;28;20434;-75
2022/09/17 04:18:42;;;;;;;4.03;1.13;;;9.90;99.90;;;;;;5031308;28;20233;-75
2022/09/17 04:21:08;;;;;;;3.10;1.30;;;9.90;99.90;;;;;;5029514;28;20694;-75
2022/09/17 04:23:34;;;;;;;5.87;1.40;;;9.90;99.90;;;;;;5031158;28;20206;-75
2022/09/17 04:25:59;;;;;;;3.30;1.50;;;10.00;99.90;;;;;;5029510;28;20194;-75
2022/09/17 04:28:25;;;;;;;1.10;1.00;;;10.00;99.90;;;;;;5031086;28;20185;-75
2022/09/17 04:30:51;;;;;;;5.30;1.10;;;10.00;99.90;;;;;;5029855;28;20242;-75
2022/09/17 04:33:16;;;;;;;1.40;0.90;;;10.10;99.90;;;;;;5033322;28;20242;-75
2022/09/17 04:35:42;;;;;;;3.97;1.03;;;10.00;99.90;;;;;;5031236;28;20183;-75
2022/09/17 04:38:08;;;;;;;2.83;1.20;;;10.00;99.90;;;;;;5031197;28;20182;-75
2022/09/17 04:40:33;;;;;;;6.00;1.70;;;10.00;99.90;;;;;;5030974;28;20202;-75
2022/09/17 04:43:01;;;;;;;4.90;1.57;;;10.00;99.90;;;;;;5029157;28;20951;-75
2022/09/17 04:45:28;;;;;;;1.50;1.40;;;10.00;99.90;;;;;;5030648;28;20189;-75
2022/09/17 04:47:54;;;;;;;2.77;1.73;;;10.00;99.90;;;;;;5029174;28;20427;-75
2022/09/17 04:50:21;;;;;;;3.17;1.67;;;10.00;99.90;;;;;;5029041;28;20477;-75
2022/09/17 04:52:48;;;;;;;4.67;1.50;;;9.90;99.90;;;;;;5030605;28;20468;-75
2022/09/17 04:55:14;;;;;;;3.13;1.77;;;9.90;99.90;;;;;;5028882;28;20483;-75
2022/09/17 04:57:51;;;;;;;3.20;1.90;;;9.90;99.90;;;;;;5030409;28;20443;-75
2022/09/17 05:00:18;;;;;;;8.33;2.03;;;9.90;99.90;;;;;;5030294;28;20432;-75
2022/09/17 05:02:49;;;;;;;3.57;1.70;;;9.90;99.90;;;;;;5028746;28;20626;-75
2022/09/17 05:05:15;;;;;;;1.90;1.77;;;9.80;99.90;;;;;;5030240;28;20443;-75
2022/09/17 05:07:41;;;;;;;3.57;1.80;;;9.90;99.90;;;;;;5030237;28;20416;-75
2022/09/17 05:10:08;;;;;;;7.83;1.90;;;9.90;99.90;;;;;;5028566;28;20496;-75
2022/09/17 05:12:34;;;;;;;6.30;1.47;;;9.90;99.90;;;;;;5030305;28;20222;-75
2022/09/17 05:14:59;;;;;;;2.93;1.53;;;9.90;99.90;;;;;;5030075;28;20941;-75
2022/09/17 05:17:25;;;;;;;5.97;1.37;;;9.80;99.90;;;;;;5028562;28;20728;-75
2022/09/17 05:19:52;;;;;;;6.17;1.80;;;9.80;99.90;;;;;;5028510;28;20210;-75
2022/09/17 05:22:18;;;;;;;8.63;1.70;;;9.80;99.90;;;;;;5029397;28;20208;-75
2022/09/17 05:24:43;;;;;;;2.03;1.50;;;9.80;99.90;;;;;;5030173;28;20425;-75
2022/09/17 05:27:09;;;;;;;6.87;1.40;;;9.90;99.90;;;;;;5028849;28;20963;-75
2022/09/17 05:29:35;;;;;;;2.67;1.13;;;9.80;99.90;;;;;;5031002;28;20307;-74
2022/09/17 05:32:02;;;;;;;8.50;1.40;;;9.90;99.90;;;;;;5030864;28;20296;-75
2022/09/17 05:34:28;;;;;;;3.13;1.40;;;9.90;99.90;;;;;;5031958;28;20468;-74
2022/09/17 05:36:53;;;;;;;2.50;1.10;;;9.90;99.90;;;;;;5032949;28;20507;-75
2022/09/17 05:39:21;;;;;;;7.60;1.50;;;10.00;99.90;;;;;;5030099;28;20192;-74
2022/09/17 05:41:47;;;;;;;5.90;1.70;;;10.00;99.90;;;;;;5031006;28;20219;-74
2022/09/17 05:44:12;;;;;;;4.97;1.63;;;10.00;99.90;;;;;;5029231;28;20764;-74
2022/09/17 05:46:38;;;;;;;4.23;1.47;;;10.00;99.90;;;;;;5030712;28;20465;-74
2022/09/17 05:49:04;;;;;;;4.83;1.60;;;10.00;99.90;;;;;;5028520;28;20191;-74
2022/09/17 05:51:30;;;;;;;3.17;1.67;;;10.00;99.90;;;;;;5028360;28;20184;-74
2022/09/17 05:53:56;;;;;;;8.03;1.80;;;10.00;99.90;;;;;;5030023;28;20244;-74
2022/09/17 05:56:22;;;;;;;4.30;1.80;;;9.90;99.90;;;;;;5029409;28;20455;-74
2022/09/17 05:58:48;;;;;;;4.73;1.67;;;9.90;99.90;;;;;;5029322;28;20211;-74
2022/09/17 06:01:15;;;;;;;6.40;2.10;;;10.00;99.90;;;;;;5028053;28;20517;-74
2022/09/17 06:03:41;;;;;;;7.27;1.80;;;10.00;99.90;;;;;;5029292;28;20229;-74
2022/09/17 06:06:07;;;;;;;6.13;1.53;;;10.10;99.90;;;;;;5029226;28;21117;-74
2022/09/17 06:08:35;;;;;;;7.93;1.50;;;10.00;99.90;;;;;;5029367;28;20421;-73
2022/09/17 06:11:05;;;;;;;5.10;1.57;;;10.00;99.90;;;;;;5029220;28;20474;-74
2022/09/17 06:13:32;;;;;;;12.23;2.07;;;10.10;99.90;;;;;;5029120;28;20470;-74
2022/09/17 06:15:58;;;;;;;8.70;1.60;;;10.10;99.90;;;;;;5027630;28;20425;-74
2022/09/17 06:18:23;;;;;;;2.60;1.50;;;10.00;99.90;;;;;;5027381;28;20435;-74
2022/09/17 06:21:00;;;;;;;1.83;1.27;;;10.00;99.90;;;;;;5028950;28;20425;-74
2022/09/17 06:23:27;;;;;;;4.10;1.50;;;10.10;99.90;;;;;;5027471;28;20207;-74
2022/09/17 06:25:57;;;;;;;4.87;1.47;;;10.10;99.90;;;;;;5028987;28;20818;-73
2022/09/17 06:28:25;;;;;;;2.20;1.30;;;10.10;99.90;;;;;;5028924;28;20472;-74
2022/09/17 06:30:55;;;;;;;2.00;1.40;;;10.20;99.90;;;;;;5027339;28;20480;-74
2022/09/17 06:33:22;;;;;;;4.30;1.40;;;10.10;99.90;;;;;;5028848;28;20494;-74
2022/09/17 06:35:54;;;;;;;3.60;1.60;;;10.20;99.90;;;;;;5027678;28;20418;-74
2022/09/17 06:38:20;;;;;;;1.67;1.47;;;10.10;99.90;;;;;;5027380;28;20427;-74
2022/09/17 06:40:50;;;;;;;2.63;1.37;;;10.20;99.90;;;;;;5028904;28;20426;-74
2022/09/17 06:43:16;;;;;;;3.47;1.43;;;10.20;99.90;;;;;;5030801;28;20237;-74
2022/09/17 06:45:42;;;;;;;9.47;1.50;;;10.20;99.90;;;;;;5027776;28;20488;-74
2022/09/17 06:48:08;;;;;;;2.93;1.63;;;10.30;99.90;;;;;;5027519;28;20199;-74
2022/09/17 06:50:34;;;;;;;2.43;1.30;;;10.30;99.90;;;;;;5028397;28;20469;-74
2022/09/17 06:52:59;;;;;;;4.63;1.53;;;10.30;99.90;;;;;;5028618;28;20204;-74
2022/09/17 06:55:25;;;;;;;4.00;1.70;;;10.30;99.90;;;;;;5027273;28;20440;-74
2022/09/17 06:57:51;;;;;;;4.27;1.63;;;10.30;99.90;;;;;;5027397;28;20240;-74
2022/09/17 07:00:17;;;;;;;13.07;1.70;;;10.30;99.90;;;;;;5028534;28;20421;-74
2022/09/17 07:02:42;;;;;;;2.30;1.40;;;10.20;99.90;;;;;;5028592;28;20317;-74
2022/09/17 07:05:08;;;;;;;5.70;1.50;;;10.30;99.90;;;;;;5027349;28;20199;-74
2022/09/17 07:07:38;;;;;;;4.60;1.60;;;10.20;99.90;;;;;;5028388;28;20184;-74
2022/09/17 07:10:03;;;;;;;7.97;1.23;;;10.40;99.90;;;;;;5028318;28;20477;-74
2022/09/17 07:12:29;;;;;;;4.20;1.53;;;10.30;99.90;;;;;;5028420;28;20502;-74
2022/09/17 07:14:55;;;;;;;7.00;2.10;;;10.40;99.90;;;;;;5027051;28;20417;-75
2022/09/17 07:17:20;;;;;;;11.83;2.20;;;10.40;99.90;;;;;;5028574;28;20195;-75
2022/09/17 07:19:46;;;;;;;14.60;2.20;;;10.40;99.90;;;;;;5028511;28;20214;-74
2022/09/17 07:22:12;;;;;;;3.83;1.73;;;10.40;99.90;;;;;;5028332;28;20207;-74
2022/09/17 07:24:38;;;;;;;4.07;1.70;;;10.40;99.90;;;;;;5027148;28;20221;-74
2022/09/17 07:27:04;;;;;;;4.93;1.70;;;10.40;99.90;;;;;;5028303;28;20454;-74
2022/09/17 07:29:31;;;;;;;10.07;2.00;;;10.50;99.90;;;;;;5028318;28;20675;-74
2022/09/17 07:31:58;;;;;;;4.87;1.30;;;10.50;99.90;;;;;;5028339;28;20635;-74
2022/09/17 07:34:26;;;;;;;7.50;1.50;;;10.60;99.90;;;;;;5026860;28;20869;-74
2022/09/17 07:36:52;;;;;;;4.10;2.20;;;10.50;99.90;;;;;;5028166;28;20419;-74
2022/09/17 07:39:18;;;;;;;11.60;1.93;;;10.60;99.90;;;;;;5028316;28;20433;-74
2022/09/17 07:41:49;;;;;;;7.37;2.03;;;10.60;99.90;;;;;;5028091;28;20195;-74
2022/09/17 07:44:14;;;;;;;3.97;1.80;;;10.60;99.90;;;;;;5028293;28;20301;-74
2022/09/17 07:46:40;;;;;;;4.20;1.90;;;10.50;99.90;;;;;;5031613;28;21003;-74
2022/09/17 07:49:06;;;;;;;6.47;2.00;;;10.60;99.90;;;;;;5030153;28;20192;-74
2022/09/17 07:51:31;;;;;;;7.50;3.50;;;10.60;99.90;;;;;;5031561;28;20196;-74
2022/09/17 07:54:01;;;;;;;7.03;2.83;;;10.50;99.90;;;;;;5031740;28;20198;-74
2022/09/17 07:56:27;;;;;;;7.93;2.50;;;10.60;99.90;;;;;;5031669;28;20184;-74
2022/09/17 07:58:53;;;;;;;5.90;1.57;;;10.50;99.90;;;;;;5031790;28;20427;-74
2022/09/17 08:01:21;;;;;;;4.43;1.80;;;10.40;99.90;;;;;;5030178;28;20444;-74
2022/09/17 08:03:50;;;;;;;9.67;2.10;;;10.30;99.90;;;;;;5031458;28;20453;-74
2022/09/17 08:06:19;;;;;;;9.73;2.40;;;10.30;99.90;;;;;;5029967;28;20435;-74
2022/09/17 08:08:44;;;;;;;7.03;2.50;;;10.30;99.90;;;;;;5031371;28;20803;-74
2022/09/17 08:11:12;;;;;;;7.90;2.93;;;10.30;99.90;;;;;;5031359;28;20475;-74
2022/09/17 08:13:38;;;;;;;3.63;2.40;;;10.30;99.90;;;;;;5013299;28;20248;-74
2022/09/17 08:16:11;;;;;;;9.50;2.97;;;10.40;99.90;;;;;;5031344;28;20918;-74
2022/09/17 08:18:37;;;;;;;6.03;2.40;;;10.50;99.90;;;;;;5030107;28;20411;-74
2022/09/17 08:21:05;;;;;;;6.10;2.40;;;10.50;99.90;;;;;;5031222;28;20423;-74
2022/09/17 08:23:33;;;;;;;8.30;2.20;;;10.50;99.90;;;;;;5029718;28;20488;-74
2022/09/17 08:25:59;;;;;;;2.90;1.80;;;10.60;99.90;;;;;;5031348;28;20420;-74
2022/09/17 08:28:27;;;;;;;10.40;2.17;;;10.60;99.90;;;;;;5030001;28;20430;-74
2022/09/17 08:30:54;;;;;;;3.87;1.43;;;10.50;99.90;;;;;;5029614;28;20476;-74
2022/09/17 08:33:20;;;;;;;3.93;1.63;;;10.40;99.90;;;;;;5029668;28;20950;-74
2022/09/17 08:35:53;;;;;;;4.00;1.90;;;10.40;99.90;;;;;;5031319;28;20431;-74
2022/09/17 08:38:20;;;;;;;8.37;3.10;;;10.40;99.90;;;;;;5031588;28;20430;-74
2022/09/17 08:41:13;;;;;;;6.47;3.00;;;10.50;99.90;;;;;;5029919;28;20462;-74
2022/09/17 08:44:03;;;;;;;8.43;2.93;;;10.60;99.90;;;;;;5031531;28;20433;-74
2022/09/17 08:46:44;;;;;;;1.60;1.37;;;10.80;99.90;;;;;;5031649;28;20911;-74
2022/09/17 08:49:30;;;;;;;5.33;2.20;;;10.70;99.90;;;;;;5029930;28;20427;-74
2022/09/17 08:52:14;;;;;;;8.10;2.13;;;10.60;99.90;;;;;;5030913;28;20823;-74
2022/09/17 08:55:15;;;;;;;7.77;4.53;;;10.50;99.90;;;;;;5032236;28;20409;-74
2022/09/17 08:57:55;;;;;;;19.20;10.43;;;10.40;99.90;;;;;;5028217;28;20433;-74
2022/09/17 09:00:23;;;;;;;4.67;2.53;;;10.40;99.90;;;;;;5031121;28;20421;-74
2022/09/17 09:03:20;;;;;;;5.67;2.90;;;10.40;99.90;;;;;;5030471;28;20446;-74
2022/09/17 09:05:57;;;;;;;5.33;2.10;;;10.30;99.90;;;;;;5030372;28;20901;-74
2022/09/17 09:08:29;;;;;;;6.47;3.23;;;10.20;99.90;;;;;;5030384;28;20421;-75
2022/09/17 09:10:57;;;;;;;9.87;5.70;;;10.20;99.90;;;;;;5030295;28;20466;-75
2022/09/17 09:13:30;;;;;;;7.40;2.53;;;10.30;99.90;;;;;;5029890;28;20545;-74
2022/09/17 09:16:04;;;;;;;5.30;1.70;;;10.40;99.90;;;;;;5030110;28;20770;-75
2022/09/17 09:18:32;;;;;;;9.10;2.53;;;10.40;99.90;;;;;;5030105;28;20792;-74
2022/09/17 09:21:04;;;;;;;7.40;3.43;;;10.50;99.90;;;;;;5028784;28;20822;-74
2022/09/17 09:23:55;;;;;;;5.07;2.30;;;10.60;99.90;;;;;;5029988;28;20458;-74
2022/09/17 09:26:34;;;;;;;4.53;3.43;;;10.80;99.90;;;;;;5028522;28;20443;-74
2022/09/17 09:29:19;;;;;;;5.50;3.53;;;10.90;99.90;;;;;;5028549;28;20918;-76
2022/09/17 09:32:15;;;;;;;3.80;3.20;;;10.90;99.90;;;;;;5028727;28;20449;-74
2022/09/17 09:34:41;;;;;;;4.13;2.70;;;11.00;99.90;;;;;;5029801;28;20402;-73
2022/09/17 09:37:22;;;;;;;3.50;2.17;;;11.10;99.90;;;;;;5029766;28;20426;-74
2022/09/17 09:39:51;;;;;;;6.10;3.33;;;11.30;99.90;;;;;;5028280;28;20853;-74
2022/09/17 09:42:22;;;;;;;10.17;2.27;;;11.40;99.90;;;;;;5012128;28;20438;-74
2022/09/17 09:44:48;;;;;;;5.07;2.23;;;11.40;99.90;;;;;;5029565;28;20421;-76
2022/09/17 09:47:50;;;;;;;3.63;1.87;;;11.60;99.90;;;;;;5029593;28;20426;-74
2022/09/17 09:50:45;;;;;;;9.00;2.03;;;11.80;99.90;;;;;;5029154;28;20469;-74
2022/09/17 09:53:35;;;;;;;5.53;1.50;;;11.80;99.90;;;;;;5029332;28;20484;-74
2022/09/17 09:56:27;;;;;;;4.80;1.70;;;11.60;99.90;;;;;;5029627;28;20462;-75
2022/09/17 09:58:52;;;;;;;3.80;1.90;;;11.60;99.90;;;;;;5029542;28;20433;-76
2022/09/17 10:01:19;;;;;;;7.23;1.73;;;11.60;99.90;;;;;;5027731;28;20435;-76
2022/09/17 10:03:46;;;;;;;9.10;1.90;;;11.70;99.90;;;;;;5027782;28;20212;-75
2022/09/17 10:06:16;;;;;;;5.60;1.60;;;11.90;99.90;;;;;;5027857;28;20433;-75
2022/09/17 10:09:02;;;;;;;9.53;2.00;;;11.90;99.90;;;;;;5027920;28;20427;-76
2022/09/17 10:11:32;;;;;;;4.50;1.60;;;12.00;99.90;;;;;;5021874;28;20852;-76
2022/09/17 10:14:24;;;;;;;9.17;2.07;;;12.00;99.90;;;;;;5029534;28;20447;-76
2022/09/17 10:17:09;;;;;;;9.30;2.20;;;11.90;99.90;;;;;;5029774;28;20834;-75
2022/09/17 10:19:35;;;;;;;7.70;2.93;;;12.20;99.90;;;;;;5029532;28;20425;-75
2022/09/17 10:22:20;;;;;;;18.70;2.80;;;12.30;99.90;;;;;;5011856;28;20450;-76
2022/09/17 10:24:47;;;;;;;7.27;1.80;;;12.50;99.90;;;;;;5029825;28;20263;-76
2022/09/17 10:27:16;;;;;;;8.03;2.17;;;12.60;99.90;;;;;;5029757;28;20430;-76
2022/09/17 10:29:44;;;;;;;10.23;2.70;;;12.60;99.90;;;;;;5028336;28;20546;-76
2022/09/17 10:32:21;;;;;;;9.27;2.50;;;12.50;99.90;;;;;;5028139;28;20983;-74
2022/09/17 10:35:17;;;;;;;12.50;2.80;;;12.40;99.90;;;;;;5029753;28;20426;-76
2022/09/17 10:37:51;;;;;;;10.53;2.40;;;12.40;99.90;;;;;;5020540;28;20492;-76
2022/09/17 10:40:19;;;;;;;11.77;2.90;;;12.40;99.90;;;;;;5029437;28;21345;-76
2022/09/17 10:42:50;;;;;;;10.57;2.53;;;12.50;99.90;;;;;;5029332;28;20454;-76
2022/09/17 10:45:27;;;;;;;7.70;2.30;;;12.50;99.90;;;;;;5027788;28;20907;-75
2022/09/17 10:47:54;;;;;;;9.23;2.53;;;12.20;99.90;;;;;;5029038;28;20428;-75
2022/09/17 10:50:27;;;;;;;11.43;2.63;;;12.00;99.90;;;;;;5028911;28;20467;-76
2022/09/17 10:52:56;;;;;;;17.83;2.03;;;11.80;99.90;;;;;;5027195;28;20462;-76
2022/09/17 10:55:28;;;;;;;15.90;2.97;;;11.80;99.90;;;;;;5028633;28;20800;-76
2022/09/17 10:58:09;;;;;;;12.57;2.97;;;12.30;99.90;;;;;;5028677;28;20422;-74
2022/09/17 11:00:56;;;;;;;10.90;2.53;;;12.50;99.90;;;;;;5027124;28;20494;-74
2022/09/17 11:03:39;;;;;;;7.13;2.93;;;12.70;99.90;;;;;;5028878;28;20435;-74
2022/09/17 11:06:14;;;;;;;6.40;1.50;;;12.90;99.90;;;;;;5029859;28;20513;-73
2022/09/17 11:09:04;;;;;;;5.07;1.80;;;13.10;99.90;;;;;;5028414;28;20411;-74
2022/09/17 11:11:45;;;;;;;4.27;1.23;;;13.20;99.90;;;;;;5039582;28;20471;-74
2022/09/17 11:14:14;;;;;;;9.00;2.03;;;13.10;99.90;;;;;;5054068;28;20457;-74
2022/09/17 11:17:07;;;;;;;6.40;2.07;;;13.30;99.90;;;;;;5054513;28;20695;-74
2022/09/17 11:19:38;;;;;;;6.10;1.97;;;13.70;99.90;;;;;;5028656;28;20438;-74
2022/09/17 11:22:46;;;;;;;5.73;1.57;;;14.10;99.90;;;;;;5033394;28;20442;-74
2022/09/17 11:25:23;;;;;;;3.93;1.30;;;14.30;99.90;;;;;;5032552;28;20419;-74
2022/09/17 11:27:55;;;;;;;4.27;1.33;;;14.00;99.90;;;;;;5032546;28;20418;-74
2022/09/17 11:30:23;;;;;;;8.50;1.77;;;13.90;99.90;;;;;;5032521;28;20818;-74
2022/09/17 11:33:03;;;;;;;4.60;1.90;;;14.00;99.90;;;;;;5032308;28;20437;-74
2022/09/17 11:35:38;;;;;;;9.10;1.80;;;13.90;99.90;;;;;;5031882;28;20415;-75
2022/09/17 11:38:33;;;;;;;4.07;1.70;;;13.70;99.90;;;;;;5031805;28;20422;-74
2022/09/17 11:41:05;;;;;;;4.63;1.33;;;13.60;99.90;;;;;;5031184;28;20450;-74
2022/09/17 11:43:34;;;;;;;7.60;1.73;;;13.90;99.90;;;;;;5031549;28;20815;-75
2022/09/17 11:46:06;;;;;;;7.57;1.60;;;14.10;99.90;;;;;;5031640;28;20417;-76
2022/09/17 11:48:43;;;;;;;4.33;1.40;;;14.30;99.90;;;;;;5030229;28;20423;-76
2022/09/17 11:51:29;;;;;;;3.93;1.37;;;14.20;99.90;;;;;;5031499;28;20557;-74
2022/09/17 11:54:15;;;;;;;5.90;1.10;;;14.10;99.90;;;;;;5031484;28;20457;-74
2022/09/17 11:56:43;;;;;;;7.47;1.37;;;14.20;99.90;;;;;;5030098;28;20527;-76
2022/09/17 11:59:27;;;;;;;1.67;0.93;;;14.10;99.90;;;;;;5031310;28;20518;-74
2022/09/17 12:02:01;;;;;;;9.13;1.40;;;13.90;99.90;;;;;;5031165;28;20443;-76
2022/09/17 12:04:48;;;;;;;4.87;1.33;;;13.80;99.90;;;;;;5031358;28;20419;-76
2022/09/17 12:07:25;;;;;;;4.97;1.80;;;14.20;99.90;;;;;;5029937;28;20967;-75
2022/09/17 12:10:17;;;;;;;7.30;1.97;;;14.60;99.90;;;;;;5031081;28;20462;-76
2022/09/17 12:12:53;;;;;;;4.37;1.47;;;15.00;99.90;;;;;;5011032;28;20545;-76
2022/09/17 12:15:24;;;;;;;5.20;1.33;;;15.40;99.90;;;;;;5031242;28;20412;-76
2022/09/17 12:18:01;;;;;;;3.53;1.20;;;15.50;99.90;;;;;;5030976;28;20991;-76
2022/09/17 12:20:33;;;;;;;4.20;0.93;;;15.50;99.90;;;;;;5030916;28;20498;-77
2022/09/17 12:23:05;;;;;;;9.23;1.70;;;15.30;99.90;;;;;;5031340;28;20928;-76
2022/09/17 12:25:36;;;;;;;5.77;1.10;;;15.20;99.90;;;;;;5031022;28;20427;-76
2022/09/17 12:28:14;;;;;;;5.93;1.40;;;15.40;99.90;;;;;;5029413;28;20437;-76
2022/09/17 12:30:45;;;;;;;3.17;1.20;;;15.50;99.90;;;;;;5030533;28;20570;-74
2022/09/17 12:33:18;;;;;;;4.20;1.03;;;15.30;99.90;;;;;;5029224;28;20929;-74
2022/09/17 12:36:25;;;;;;;4.80;1.20;;;15.10;99.90;;;;;;5030637;28;20455;-75
2022/09/17 12:39:33;;;;;;;2.93;0.70;;;15.00;99.90;;;;;;5029235;28;20431;-74
2022/09/17 12:42:25;;;;;;;4.00;1.27;;;15.00;99.90;;;;;;5030522;28;20440;-74
2022/09/17 12:45:06;;;;;;;3.67;1.00;;;14.70;99.90;;;;;;5030808;28;20427;-76
2022/09/17 12:47:40;;;;;;;4.00;1.20;;;14.50;99.90;;;;;;5030649;28;20508;-74
2022/09/17 12:50:21;;;;;;;7.93;1.43;;;14.10;99.90;;;;;;5030506;28;20613;-74
2022/09/17 12:53:01;;;;;;;3.47;1.13;;;14.10;99.90;;;;;;5030759;28;20499;-75
2022/09/17 12:55:44;;;;;;;5.37;1.47;;;13.90;99.90;;;;;;5030339;28;20439;-76
2022/09/17 12:58:41;;;;;;;6.50;1.30;;;13.90;99.90;;;;;;5028972;28;20443;-76
2022/09/17 13:01:23;;;;;;;5.27;1.77;;;14.00;99.90;;;;;;5025767;28;20427;-76
2022/09/17 13:03:57;;;;;;;4.80;1.23;;;13.90;99.90;;;;;;5030250;28;20450;-76
2022/09/17 13:06:37;;;;;;;6.20;1.23;;;14.00;99.90;;;;;;5030326;28;20505;-76
2022/09/17 13:09:15;;;;;;;2.10;0.87;;;14.00;99.90;;;;;;5028670;28;20527;-76
2022/09/17 13:12:06;;;;;;;10.03;1.50;;;14.00;99.90;;;;;;5030260;28;20926;-76
2022/09/17 13:14:37;;;;;;;3.93;0.90;;;14.00;99.90;;;;;;5024249;28;20880;-76
2022/09/17 13:17:10;;;;;;;4.30;0.97;;;14.10;99.90;;;;;;5030560;28;20408;-76
2022/09/17 13:20:01;;;;;;;3.10;0.97;;;14.10;99.90;;;;;;5031114;28;20407;-76